createdAt,value
2022-08-29T00:01:28.703Z,123.70
2022-08-29T00:04:00.735Z,134.35
2022-08-29T00:06:30.904Z,125.60
2022-08-29T00:09:00.019Z,123.18
2022-08-29T00:11:29.366Z,133.93
2022-08-29T00:13:58.556Z,118.40
2022-08-29T00:16:27.985Z,116.60
2022-08-29T00:18:58.725Z,122.45
2022-08-29T00:21:27.973Z,128.98
2022-08-29T00:23:57.247Z,120.00
2022-08-29T00:26:26.680Z,118.68
2022-08-29T00:28:59.381Z,129.43
2022-08-29T00:31:30.347Z,136.35
2022-08-29T00:34:00.967Z,122.80
2022-08-29T00:36:30.702Z,120.75
2022-08-29T00:39:00.737Z,122.78
2022-08-29T00:41:29.899Z,121.53
2022-08-29T00:43:59.164Z,111.07
2022-08-29T00:46:55.565Z,118.65
2022-08-29T00:49:39.269Z,119.60
2022-08-29T00:52:15.193Z,118.22
2022-08-29T00:54:49.056Z,116.50
2022-08-29T00:57:20.366Z,115.32
2022-08-29T00:59:51.883Z,121.85
2022-08-29T01:02:21.282Z,113.00
2022-08-29T01:04:52.129Z,118.20
2022-08-29T01:07:21.426Z,112.82
2022-08-29T01:09:50.805Z,108.82
2022-08-29T01:12:19.912Z,119.57
2022-08-29T01:14:55.034Z,118.68
2022-08-29T01:17:32.229Z,114.50
2022-08-29T01:20:12.424Z,123.70
2022-08-29T01:22:54.962Z,130.50
2022-08-29T01:25:31.164Z,129.02
2022-08-29T01:28:07.731Z,125.30
2022-08-29T01:30:37.017Z,111.43
2022-08-29T01:33:06.812Z,123.05
2022-08-29T01:35:37.676Z,111.93
2022-08-29T01:38:06.790Z,116.22
2022-08-29T01:40:37.449Z,122.22
2022-08-29T01:43:06.746Z,110.43
2022-08-29T01:45:35.930Z,123.38
2022-08-29T01:48:05.981Z,119.47
2022-08-29T01:50:35.218Z,122.13
2022-08-29T01:53:04.364Z,122.53
2022-08-29T01:55:33.632Z,115.43
2022-08-29T01:58:04.296Z,117.43
2022-08-29T02:00:34.468Z,118.20
2022-08-29T02:03:03.954Z,115.80
2022-08-29T02:05:33.524Z,105.20
2022-08-29T02:08:02.752Z,104.63
2022-08-29T02:10:32.072Z,110.30
2022-08-29T02:13:01.302Z,112.18
2022-08-29T02:15:32.214Z,111.93
2022-08-29T02:18:01.445Z,103.22
2022-08-29T02:20:30.618Z,109.25
2022-08-29T02:22:59.996Z,126.65
2022-08-29T02:25:47.602Z,112.90
2022-08-29T02:28:19.524Z,118.43
2022-08-29T02:30:55.825Z,112.85
2022-08-29T02:33:28.538Z,112.78
2022-08-29T02:35:58.597Z,114.75
2022-08-29T02:38:28.170Z,106.03
2022-08-29T02:40:58.368Z,107.00
2022-08-29T02:43:28.043Z,110.97
2022-08-29T02:45:58.720Z,103.07
2022-08-29T02:48:28.424Z,110.72
2022-08-29T02:50:59.959Z,106.30
2022-08-29T02:53:32.189Z,107.18
2022-08-29T02:56:02.208Z,119.13
2022-08-29T02:58:31.950Z,106.72
2022-08-29T03:01:02.579Z,113.60
2022-08-29T03:03:33.671Z,108.30
2022-08-29T03:06:03.542Z,112.03
2022-08-29T03:08:32.859Z,115.40
2022-08-29T03:11:02.176Z,107.63
2022-08-29T03:13:31.894Z,111.53
2022-08-29T03:16:03.297Z,102.10
2022-08-29T03:18:32.833Z,104.22
2022-08-29T03:21:02.082Z,105.50
2022-08-29T03:23:31.263Z,108.95
2022-08-29T03:26:00.390Z,102.13
2022-08-29T03:28:30.183Z,102.38
2022-08-29T03:30:59.362Z,103.88
2022-08-29T03:33:29.979Z,105.22
2022-08-29T03:35:59.510Z,110.80
2022-08-29T03:38:28.814Z,106.55
2022-08-29T03:40:58.263Z,97.80
2022-08-29T03:43:27.624Z,104.35
2022-08-29T03:45:56.954Z,110.55
2022-08-29T03:48:26.149Z,104.20
2022-08-29T03:50:56.971Z,111.65
2022-08-29T03:53:26.735Z,109.70
2022-08-29T03:55:56.548Z,110.72
2022-08-29T03:58:25.833Z,109.20
2022-08-29T04:00:55.059Z,110.22
2022-08-29T04:03:26.499Z,119.35
2022-08-29T04:06:02.052Z,118.97
2022-08-29T04:08:31.335Z,118.07
2022-08-29T04:11:00.617Z,108.57
2022-08-29T04:13:29.919Z,111.00
2022-08-29T04:15:59.073Z,116.63
2022-08-29T04:18:28.298Z,115.65
2022-08-29T04:21:05.101Z,106.53
2022-08-29T04:23:35.828Z,116.60
2022-08-29T04:26:30.146Z,120.57
2022-08-29T04:28:54.890Z,109.07
2022-08-29T04:31:24.219Z,106.35
2022-08-29T04:33:53.429Z,106.95
2022-08-29T04:36:24.023Z,113.22
2022-08-29T04:38:55.051Z,109.30
2022-08-29T04:41:24.301Z,112.63
2022-08-29T04:43:53.618Z,116.75
2022-08-29T04:46:24.569Z,108.43
2022-08-29T04:48:55.016Z,112.03
2022-08-29T04:51:25.914Z,103.75
2022-08-29T04:53:55.216Z,111.93
2022-08-29T04:56:24.631Z,110.05
2022-08-29T04:58:53.872Z,112.15
2022-08-29T05:01:27.119Z,114.43
2022-08-29T05:03:58.107Z,118.88
2022-08-29T05:06:30.570Z,118.78
2022-08-29T05:09:00.214Z,111.63
2022-08-29T05:11:31.617Z,123.47
2022-08-29T05:14:02.606Z,113.82
2022-08-29T05:16:37.192Z,115.03
2022-08-29T05:19:08.617Z,117.60
2022-08-29T05:21:41.435Z,117.90
2022-08-29T05:24:13.195Z,116.72
2022-08-29T05:26:45.381Z,119.20
2022-08-29T05:29:15.104Z,118.70
2022-08-29T05:31:45.863Z,125.45
2022-08-29T05:34:32.519Z,119.80
2022-08-29T05:37:08.372Z,110.47
2022-08-29T05:39:39.184Z,119.65
2022-08-29T05:42:10.453Z,115.45
2022-08-29T05:44:40.879Z,131.52
2022-08-29T05:47:13.658Z,116.63
2022-08-29T05:49:45.068Z,115.55
2022-08-29T05:52:19.571Z,143.50
2022-08-29T05:54:48.985Z,126.45
2022-08-29T05:57:23.245Z,128.25
2022-08-29T05:59:54.702Z,111.55
2022-08-29T06:02:25.226Z,117.78
2022-08-29T06:04:54.774Z,120.60
2022-08-29T06:07:25.345Z,127.75
2022-08-29T06:09:54.693Z,119.68
2022-08-29T06:12:29.700Z,123.30
2022-08-29T06:14:58.898Z,121.57
2022-08-29T06:17:28.619Z,126.75
2022-08-29T06:19:57.756Z,133.18
2022-08-29T06:22:28.452Z,127.90
2022-08-29T06:24:58.449Z,137.15
2022-08-29T06:27:27.948Z,126.57
2022-08-29T06:30:01.269Z,139.65
2022-08-29T06:32:31.199Z,126.55
2022-08-29T06:35:00.724Z,123.78
2022-08-29T06:37:31.406Z,117.40
2022-08-29T06:40:00.888Z,106.00
2022-08-29T06:42:30.033Z,110.95
2022-08-29T06:45:00.600Z,127.45
2022-08-29T06:47:31.526Z,110.03
2022-08-29T06:50:01.034Z,111.03
2022-08-29T06:52:32.014Z,99.70
2022-08-29T06:55:01.573Z,98.40
2022-08-29T06:57:30.783Z,98.55
2022-08-29T07:00:00.026Z,108.53
2022-08-29T07:02:31.028Z,95.90
2022-08-29T07:05:00.354Z,99.50
2022-08-29T07:07:29.676Z,94.25
2022-08-29T07:10:07.103Z,96.35
2022-08-29T07:12:39.869Z,80.80
2022-08-29T07:15:12.905Z,91.10
2022-08-29T07:17:44.602Z,86.43
2022-08-29T07:20:14.381Z,90.23
2022-08-29T07:22:51.243Z,87.97
2022-08-29T07:25:23.358Z,92.97
2022-08-29T07:27:53.535Z,89.78
2022-08-29T07:30:23.872Z,93.25
2022-08-29T07:32:53.571Z,91.75
2022-08-29T07:35:30.544Z,78.63
2022-08-29T07:38:01.787Z,75.78
2022-08-29T07:40:32.638Z,73.88
2022-08-29T07:43:01.953Z,72.72
2022-08-29T07:45:31.423Z,67.95
2022-08-29T07:48:00.669Z,62.38
2022-08-29T07:50:29.887Z,67.93
2022-08-29T07:52:59.567Z,67.72
2022-08-29T07:55:28.742Z,67.22
2022-08-29T07:57:59.252Z,64.53
2022-08-29T08:00:29.049Z,66.78
2022-08-29T08:02:58.678Z,71.53
2022-08-29T08:05:28.493Z,90.40
2022-08-29T08:08:02.154Z,78.63
2022-08-29T08:10:33.989Z,101.95
2022-08-29T08:13:04.562Z,90.18
2022-08-29T08:15:33.860Z,75.82
2022-08-29T08:18:03.066Z,90.45
2022-08-29T08:20:32.397Z,107.50
2022-08-29T08:23:01.710Z,97.38
2022-08-29T08:25:31.031Z,89.80
2022-08-29T08:28:00.288Z,105.25
2022-08-29T08:30:34.987Z,101.10
2022-08-29T08:33:05.599Z,108.05
2022-08-29T08:35:37.313Z,112.00
2022-08-29T08:38:08.786Z,117.30
2022-08-29T08:40:45.123Z,95.57
2022-08-29T08:43:26.622Z,102.35
2022-08-29T08:45:58.596Z,116.90
2022-08-29T08:48:34.878Z,94.88
2022-08-29T08:51:11.037Z,107.95
2022-08-29T08:53:44.570Z,83.30
2022-08-29T08:56:21.267Z,128.98
2022-08-29T08:58:56.779Z,111.00
2022-08-29T09:01:33.497Z,98.75
2022-08-29T09:04:30.816Z,97.35
2022-08-29T09:07:14.944Z,110.82
2022-08-29T09:10:03.744Z,106.10
2022-08-29T09:12:49.789Z,106.20
2022-08-29T09:15:25.873Z,78.15
2022-08-29T09:18:01.237Z,89.63
2022-08-29T09:20:35.038Z,96.80
2022-08-29T09:23:12.337Z,86.88
2022-08-29T09:25:41.815Z,108.07
2022-08-29T09:28:11.405Z,96.53
2022-08-29T09:30:44.093Z,86.10
2022-08-29T09:33:17.602Z,77.15
2022-08-29T09:35:51.996Z,74.13
2022-08-29T09:38:25.756Z,99.72
2022-08-29T09:40:59.204Z,116.43
2022-08-29T09:43:34.665Z,101.95
2022-08-29T09:46:15.182Z,101.53
2022-08-29T09:48:48.326Z,126.38
2022-08-29T09:51:27.066Z,117.80
2022-08-29T09:54:16.515Z,118.32
2022-08-29T09:56:55.148Z,112.88
2022-08-29T09:59:29.460Z,106.13
2022-08-29T10:02:28.989Z,85.18
2022-08-29T10:05:05.969Z,99.40
2022-08-29T10:07:50.653Z,96.68
2022-08-29T10:10:23.149Z,83.68
2022-08-29T10:13:00.718Z,83.38
2022-08-29T10:15:51.765Z,114.35
2022-08-29T10:18:34.215Z,115.40
2022-08-29T10:21:30.586Z,102.28
2022-08-29T10:24:19.640Z,126.70
2022-08-29T10:27:01.444Z,113.28
2022-08-29T10:29:56.190Z,155.70
2022-08-29T10:32:44.455Z,116.35
2022-08-29T10:35:24.403Z,112.80
2022-08-29T10:38:01.209Z,142.15
2022-08-29T10:40:43.557Z,159.23
2022-08-29T10:43:36.188Z,112.57
2022-08-29T10:46:36.823Z,112.40
2022-08-29T10:49:17.954Z,111.70
2022-08-29T10:51:58.842Z,119.40
2022-08-29T10:54:42.616Z,105.00
2022-08-29T10:57:18.807Z,121.30
2022-08-29T11:00:07.232Z,104.32
2022-08-29T11:02:42.275Z,113.20
2022-08-29T11:05:26.970Z,129.18
2022-08-29T11:08:04.374Z,158.90
2022-08-29T11:10:42.411Z,107.97
2022-08-29T11:13:18.619Z,117.95
2022-08-29T11:15:59.196Z,131.55
2022-08-29T11:18:36.862Z,134.43
2022-08-29T11:21:17.466Z,115.93
2022-08-29T11:23:49.646Z,151.35
2022-08-29T11:26:37.790Z,105.28
2022-08-29T11:29:22.392Z,153.52
2022-08-29T11:32:00.547Z,127.03
2022-08-29T11:34:42.774Z,136.13
2022-08-29T11:37:54.651Z,132.48
2022-08-29T11:41:26.334Z,115.55
2022-08-29T11:43:44.160Z,120.18
2022-08-29T11:46:16.318Z,115.65
2022-08-29T11:48:47.628Z,143.75
2022-08-29T11:51:36.278Z,124.82
2022-08-29T11:54:54.321Z,125.97
2022-08-29T11:57:52.047Z,120.20
2022-08-29T12:00:48.716Z,131.10
2022-08-29T12:03:55.367Z,123.97
2022-08-29T12:07:01.148Z,164.25
2022-08-29T12:09:47.536Z,112.10
2022-08-29T12:12:41.271Z,127.63
2022-08-29T12:15:55.803Z,149.30
2022-08-29T12:18:47.553Z,149.68
2022-08-29T12:21:48.911Z,144.45
2022-08-29T12:24:43.076Z,141.48
2022-08-29T12:28:06.039Z,125.88
2022-08-29T12:30:42.936Z,156.90
2022-08-29T12:33:24.784Z,130.30
2022-08-29T12:36:18.805Z,127.43
2022-08-29T12:39:04.598Z,150.65
2022-08-29T12:41:51.084Z,142.38
2022-08-29T12:44:27.584Z,149.70
2022-08-29T12:47:05.001Z,117.40
2022-08-29T12:49:48.565Z,129.73
2022-08-29T12:52:28.602Z,109.53
2022-08-29T12:55:00.298Z,83.57
2022-08-29T12:57:37.016Z,103.60
2022-08-29T13:00:25.779Z,107.47
2022-08-29T13:03:02.357Z,112.60
2022-08-29T13:05:34.635Z,141.13
2022-08-29T13:08:12.485Z,123.07
2022-08-29T13:10:56.451Z,133.50
2022-08-29T13:13:28.154Z,157.40
2022-08-29T13:16:01.508Z,143.38
2022-08-29T13:18:33.750Z,154.38
2022-08-29T13:21:14.001Z,143.85
2022-08-29T13:23:47.438Z,148.63
2022-08-29T13:26:24.337Z,152.15
2022-08-29T13:28:57.348Z,204.52
2022-08-29T13:31:34.635Z,168.82
2022-08-29T13:34:27.190Z,213.55
2022-08-29T13:37:10.608Z,155.32
2022-08-29T13:39:49.129Z,194.77
2022-08-29T13:42:31.105Z,204.55
2022-08-29T13:45:23.492Z,165.45
2022-08-29T13:48:20.461Z,216.05
2022-08-29T13:50:49.861Z,165.60
2022-08-29T13:53:19.317Z,169.95
2022-08-29T13:55:49.896Z,165.77
2022-08-29T13:58:23.266Z,156.25
2022-08-29T14:00:52.508Z,189.18
2022-08-29T14:03:23.007Z,160.30
2022-08-29T14:05:56.414Z,146.32
2022-08-29T14:08:26.361Z,205.38
2022-08-29T14:10:57.050Z,144.63
2022-08-29T14:13:26.231Z,194.20
2022-08-29T14:15:55.495Z,186.70
2022-08-29T14:18:24.821Z,173.63
2022-08-29T14:20:53.966Z,168.77
2022-08-29T14:23:23.521Z,201.35
2022-08-29T14:25:52.835Z,209.55
2022-08-29T14:28:23.453Z,200.43
2022-08-29T14:30:52.783Z,201.07
2022-08-29T14:33:23.662Z,223.13
2022-08-29T14:35:53.384Z,195.52
2022-08-29T14:38:23.074Z,206.02
2022-08-29T14:40:52.509Z,195.10
2022-08-29T14:43:23.497Z,207.23
2022-08-29T14:45:52.910Z,219.43
2022-08-29T14:48:22.366Z,231.20
2022-08-29T14:50:51.782Z,206.13
2022-08-29T14:53:21.254Z,222.48
2022-08-29T14:55:50.947Z,244.82
2022-08-29T14:58:20.575Z,233.52
2022-08-29T15:00:51.808Z,238.10
2022-08-29T15:03:25.502Z,162.40
2022-08-29T15:05:54.826Z,204.35
2022-08-29T15:08:24.009Z,180.55
2022-08-29T15:10:53.632Z,188.52
2022-08-29T15:13:22.958Z,223.38
2022-08-29T15:15:53.794Z,155.43
2022-08-29T15:19:00.960Z,151.95
2022-08-29T15:21:14.334Z,150.38
2022-08-29T15:23:43.533Z,165.63
2022-08-29T15:26:14.220Z,131.05
2022-08-29T15:28:43.763Z,151.00
2022-08-29T15:31:15.154Z,146.07
2022-08-29T15:33:44.409Z,136.47
2022-08-29T15:36:13.757Z,114.88
2022-08-29T15:38:43.179Z,137.98
2022-08-29T15:41:12.576Z,122.78
2022-08-29T15:43:41.694Z,121.13
2022-08-29T15:46:10.939Z,130.43
2022-08-29T15:48:41.919Z,127.38
2022-08-29T15:51:11.114Z,170.05
2022-08-29T15:53:40.259Z,171.23
2022-08-29T15:56:10.394Z,209.38
2022-08-29T15:58:40.146Z,210.98
2022-08-29T16:01:09.444Z,254.65
2022-08-29T16:03:40.211Z,201.90
2022-08-29T16:06:10.889Z,264.90
2022-08-29T16:08:46.081Z,201.32
2022-08-29T16:11:16.139Z,192.05
2022-08-29T16:13:46.320Z,181.60
2022-08-29T16:16:15.770Z,255.85
2022-08-29T16:18:46.608Z,203.25
2022-08-29T16:21:16.010Z,173.23
2022-08-29T16:23:45.298Z,221.30
2022-08-29T16:26:19.802Z,156.00
2022-08-29T16:28:50.192Z,154.20
2022-08-29T16:31:21.394Z,140.90
2022-08-29T16:33:52.271Z,172.63
2022-08-29T16:36:22.399Z,178.80
2022-08-29T16:38:51.732Z,151.02
2022-08-29T16:41:23.117Z,148.60
2022-08-29T16:43:54.596Z,162.90
2022-08-29T16:46:31.110Z,148.63
2022-08-29T16:49:02.384Z,150.02
2022-08-29T16:51:32.007Z,154.10
2022-08-29T16:54:01.620Z,176.93
2022-08-29T16:56:32.937Z,179.80
2022-08-29T16:59:04.138Z,173.68
2022-08-29T17:01:37.252Z,157.15
2022-08-29T17:04:12.143Z,137.77
2022-08-29T17:06:43.242Z,142.15
2022-08-29T17:09:11.392Z,179.80
2022-08-29T17:11:39.523Z,166.27
2022-08-29T17:14:09.353Z,157.82
2022-08-29T17:16:39.749Z,178.95
2022-08-29T17:19:10.880Z,189.25
2022-08-29T17:21:40.455Z,156.90
2022-08-29T17:24:10.783Z,171.35
2022-08-29T17:26:44.522Z,184.93
2022-08-29T17:29:14.948Z,176.73
2022-08-29T17:31:44.659Z,191.77
2022-08-29T17:34:16.324Z,172.50
2022-08-29T17:36:46.086Z,175.65
2022-08-29T17:39:15.432Z,153.45
2022-08-29T17:41:45.704Z,177.90
2022-08-29T17:44:18.865Z,164.95
2022-08-29T17:46:48.156Z,148.73
2022-08-29T17:49:19.380Z,163.40
2022-08-29T17:51:53.847Z,186.18
2022-08-29T17:54:25.641Z,165.35
2022-08-29T17:56:58.006Z,146.60
2022-08-29T17:59:34.984Z,156.70
2022-08-29T18:02:05.788Z,145.23
2022-08-29T18:04:38.182Z,179.50
2022-08-29T18:07:07.520Z,162.52
2022-08-29T18:09:36.650Z,171.95
2022-08-29T18:12:07.077Z,147.13
2022-08-29T18:14:36.862Z,145.88
2022-08-29T18:17:06.194Z,162.45
2022-08-29T18:19:37.295Z,144.52
2022-08-29T18:22:06.632Z,149.65
2022-08-29T18:24:36.118Z,164.50
2022-08-29T18:27:05.896Z,147.63
2022-08-29T18:29:35.492Z,151.40
2022-08-29T18:32:05.275Z,150.02
2022-08-29T18:34:34.497Z,144.90
2022-08-29T18:37:05.313Z,149.73
2022-08-29T18:39:34.587Z,137.85
2022-08-29T18:42:04.646Z,127.20
2022-08-29T18:44:33.912Z,139.48
2022-08-29T18:47:03.388Z,135.40
2022-08-29T18:49:50.174Z,147.88
2022-08-29T18:52:21.646Z,154.63
2022-08-29T18:54:50.818Z,138.95
2022-08-29T18:57:19.974Z,163.02
2022-08-29T18:59:49.506Z,124.63
2022-08-29T19:02:18.706Z,119.85
2022-08-29T19:04:48.058Z,131.10
2022-08-29T19:07:20.402Z,124.78
2022-08-29T19:09:55.163Z,123.00
2022-08-29T19:12:24.577Z,124.03
2022-08-29T19:14:53.741Z,156.25
2022-08-29T19:17:23.077Z,130.70
2022-08-29T19:20:10.436Z,129.48
2022-08-29T19:22:39.999Z,111.20
2022-08-29T19:25:11.718Z,107.68
2022-08-29T19:27:44.090Z,108.00
2022-08-29T19:30:17.192Z,119.38
2022-08-29T19:32:46.654Z,156.10
2022-08-29T19:35:16.458Z,118.20
2022-08-29T19:37:46.019Z,113.40
2022-08-29T19:40:20.933Z,123.35
2022-08-29T19:42:50.602Z,101.40
2022-08-29T19:45:21.574Z,110.03
2022-08-29T19:47:52.203Z,102.90
2022-08-29T19:50:24.911Z,113.75
2022-08-29T19:52:55.804Z,135.65
2022-08-29T19:55:27.024Z,114.10
2022-08-29T19:57:56.278Z,135.63
2022-08-29T20:00:26.433Z,99.97
2022-08-29T20:02:59.720Z,101.60
2022-08-29T20:05:29.086Z,109.40
2022-08-29T20:07:58.924Z,125.55
2022-08-29T20:10:31.175Z,93.13
2022-08-29T20:13:00.479Z,121.85
2022-08-29T20:15:31.378Z,135.55
2022-08-29T20:18:02.441Z,96.22
2022-08-29T20:20:37.016Z,112.22
2022-08-29T20:23:07.388Z,110.00
2022-08-29T20:25:38.792Z,101.72
2022-08-29T20:28:08.253Z,121.00
2022-08-29T20:30:45.695Z,104.85
2022-08-29T20:33:19.250Z,133.77
2022-08-29T20:36:06.189Z,99.60
2022-08-29T20:38:35.556Z,90.47
2022-08-29T20:41:06.596Z,135.20
2022-08-29T20:43:39.067Z,132.45
2022-08-29T20:46:09.877Z,119.85
2022-08-29T20:48:39.909Z,107.53
2022-08-29T20:51:11.612Z,148.13
2022-08-29T20:53:41.891Z,101.55
2022-08-29T20:56:13.037Z,163.20
2022-08-29T20:58:42.266Z,120.20
2022-08-29T21:01:11.795Z,118.38
2022-08-29T21:03:58.757Z,101.97
2022-08-29T21:06:28.079Z,119.22
2022-08-29T21:08:57.359Z,106.35
2022-08-29T21:11:27.925Z,126.10
2022-08-29T21:13:57.134Z,108.70
2022-08-29T21:16:26.675Z,109.00
2022-08-29T21:18:56.127Z,137.27
2022-08-29T21:21:26.156Z,123.85
2022-08-29T21:23:55.542Z,115.15
2022-08-29T21:26:25.048Z,113.63
2022-08-29T21:28:55.672Z,103.10
2022-08-29T21:31:25.048Z,96.88
2022-08-29T21:33:54.601Z,112.00
2022-08-29T21:36:27.445Z,110.05
2022-08-29T21:39:00.646Z,138.85
2022-08-29T21:41:34.960Z,118.18
2022-08-29T21:44:08.688Z,126.47
2022-08-29T21:46:43.401Z,112.63
2022-08-29T21:49:21.878Z,105.15
2022-08-29T21:51:51.795Z,112.97
2022-08-29T21:54:21.353Z,109.47
2022-08-29T21:56:50.667Z,147.07
2022-08-29T21:59:21.969Z,104.05
2022-08-29T22:01:54.632Z,105.23
2022-08-29T22:04:29.130Z,124.43
2022-08-29T22:07:00.828Z,130.18
2022-08-29T22:09:34.568Z,110.05
2022-08-29T22:12:05.516Z,97.72
2022-08-29T22:14:53.655Z,110.25
2022-08-29T22:17:23.055Z,107.88
2022-08-29T22:19:52.395Z,130.43
2022-08-29T22:22:24.231Z,98.28
2022-08-29T22:24:53.900Z,117.13
2022-08-29T22:27:23.254Z,135.38
2022-08-29T22:29:53.937Z,113.53
2022-08-29T22:32:23.400Z,102.22
2022-08-29T22:34:52.612Z,97.72
2022-08-29T22:37:21.940Z,113.60
2022-08-29T22:39:51.076Z,119.35
2022-08-29T22:42:20.990Z,102.13
2022-08-29T22:45:06.134Z,89.38
2022-08-29T22:47:38.802Z,91.80
2022-08-29T22:52:40.238Z,110.85
2022-08-29T22:55:11.706Z,94.68
2022-08-29T22:57:42.145Z,99.47
2022-08-29T23:00:15.987Z,92.38
2022-08-29T23:02:47.192Z,95.03
2022-08-29T23:05:18.042Z,87.05
2022-08-29T23:07:48.109Z,88.10
2022-08-29T23:10:18.508Z,99.47
2022-08-29T23:12:47.900Z,105.88
2022-08-29T23:15:19.179Z,94.57
2022-08-29T23:17:52.177Z,115.03
2022-08-29T23:20:21.623Z,114.75
2022-08-29T23:22:50.979Z,110.32
2022-08-29T23:25:20.490Z,99.63
2022-08-29T23:27:49.642Z,101.78
2022-08-29T23:30:18.854Z,108.53
2022-08-29T23:32:49.390Z,102.30
2022-08-29T23:35:18.596Z,120.00
2022-08-29T23:37:47.723Z,124.05
2022-08-29T23:40:17.087Z,102.40
2022-08-29T23:42:46.462Z,109.40
2022-08-29T23:45:15.983Z,104.72
2022-08-29T23:47:45.509Z,100.50
2022-08-29T23:50:16.406Z,122.68
2022-08-29T23:52:46.550Z,104.60
2022-08-29T23:55:18.018Z,110.95
2022-08-29T23:57:47.518Z,115.70
